Time;durP1;ratioP1;P1;durP2;ratioP2;P2;SDS_P1;SDS_P2;PMS_P1;PMS_P2;Temp;Humidity;BMP_temperature;BMP_pressure;BME280_temperature;BME280_humidity;BME280_pressure;Samples;Min_cycle;Max_cycle;Signal;HPM_P1;HPM_P2
2022/10/04 00:00:45;;;;;;;9.60;5.87;;;;;;;;;;5097379;28;20280;-81
2022/10/04 00:03:25;;;;;;;7.47;5.43;;;;;;;;;;5097027;28;20225;-81
2022/10/04 00:05:55;;;;;;;9.30;5.70;;;;;;;;;;5096806;28;20195;-81
2022/10/04 00:08:26;;;;;;;13.33;6.10;;;;;;;;;;5097672;28;20657;-83
2022/10/04 00:11:12;;;;;;;7.63;5.83;;;;;;;;;;5097555;28;20190;-82
2022/10/04 00:13:42;;;;;;;8.63;5.63;;;;;;;;;;5096767;28;20222;-81
2022/10/04 00:16:19;;;;;;;13.10;6.23;;;;;;;;;;5096990;28;20327;-81
2022/10/04 00:18:50;;;;;;;11.90;5.83;;;;;;;;;;5096875;28;20239;-81
2022/10/04 00:21:19;;;;;;;12.47;5.93;;;;;;;;;;5097904;28;20591;-80
2022/10/04 00:23:48;;;;;;;10.50;6.23;;;;;;;;;;5097317;28;20241;-80
2022/10/04 00:26:31;;;;;;;7.67;5.33;;;;;;;;;;5097153;28;20244;-81
2022/10/04 00:28:59;;;;;;;9.47;5.50;;;;;;;;;;5097101;28;20225;-81
2022/10/04 00:31:29;;;;;;;12.27;6.07;;;;;;;;;;5097732;28;20256;-80
2022/10/04 00:34:20;;;;;;;10.03;5.83;;;;;;;;;;5098337;28;20287;-81
2022/10/04 00:36:51;;;;;;;9.77;5.67;;;;;;;;;;5096956;28;20663;-81
2022/10/04 00:39:35;;;;;;;12.23;6.20;;;;;;;;;;5098201;28;20220;-81
2022/10/04 00:42:09;;;;;;;14.03;6.27;;;;;;;;;;5096777;28;20189;-81
2022/10/04 00:44:39;;;;;;;10.17;6.63;;;;;;;;;;5096877;28;20214;-80
2022/10/04 00:47:17;;;;;;;9.37;6.27;;;;;;;;;;5096740;28;20182;-80
2022/10/04 00:49:48;;;;;;;8.90;6.40;;;;;;;;;;5096446;28;20193;-81
2022/10/04 00:52:20;;;;;;;11.80;5.67;;;;;;;;;;5096621;28;20190;-81
2022/10/04 00:54:51;;;;;;;10.03;5.80;;;;;;;;;;5096129;28;20226;-80
2022/10/04 00:57:22;;;;;;;11.33;5.30;;;;;;;;;;5096568;28;20186;-81
2022/10/04 00:59:51;;;;;;;9.40;6.10;;;;;;;;;;5096955;28;20190;-80
2022/10/04 01:02:21;;;;;;;11.27;6.17;;;;;;;;;;5096651;28;20323;-81
2022/10/04 01:04:53;;;;;;;9.30;5.93;;;;;;;;;;5096369;28;20248;-81
2022/10/04 01:07:24;;;;;;;8.57;6.10;;;;;;;;;;5096004;28;20197;-81
2022/10/04 01:09:54;;;;;;;8.13;5.70;;;;;;;;;;5096005;28;20186;-79
2022/10/04 01:12:27;;;;;;;7.33;5.70;;;;;;;;;;5095854;28;20220;-81
2022/10/04 01:15:00;;;;;;;8.47;6.23;;;;;;;;;;5095412;28;20253;-81
2022/10/04 01:17:29;;;;;;;9.77;5.77;;;;;;;;;;5095738;28;20228;-80
2022/10/04 01:19:59;;;;;;;10.03;5.93;;;;;;;;;;5096115;28;20221;-80
2022/10/04 01:22:37;;;;;;;10.17;6.30;;;;;;;;;;5095771;28;20206;-81
2022/10/04 01:25:06;;;;;;;7.30;5.77;;;;;;;;;;5096088;28;20185;-81
2022/10/04 01:27:36;;;;;;;9.03;6.07;;;;;;;;;;5095668;28;20202;-80
2022/10/04 01:30:08;;;;;;;7.80;5.00;;;;;;;;;;5095930;28;20251;-80
2022/10/04 01:32:37;;;;;;;11.03;5.87;;;;;;;;;;5095497;28;20210;-80
2022/10/04 01:35:07;;;;;;;11.40;6.20;;;;;;;;;;5095704;28;20278;-81
2022/10/04 01:37:39;;;;;;;13.33;6.40;;;;;;;;;;5095531;28;20201;-81
2022/10/04 01:40:09;;;;;;;11.80;6.40;;;;;;;;;;5095498;28;20598;-81
2022/10/04 01:42:41;;;;;;;13.87;6.37;;;;;;;;;;5095303;28;20202;-80
2022/10/04 01:45:14;;;;;;;11.03;6.40;;;;;;;;;;5095812;28;20186;-80
2022/10/04 01:47:45;;;;;;;7.97;6.23;;;;;;;;;;5095286;28;20225;-80
2022/10/04 01:50:16;;;;;;;11.63;6.40;;;;;;;;;;5094530;28;20182;-81
2022/10/04 01:52:49;;;;;;;11.93;6.40;;;;;;;;;;5095313;28;20186;-80
2022/10/04 01:55:20;;;;;;;13.50;6.10;;;;;;;;;;5095661;28;20245;-81
2022/10/04 01:57:51;;;;;;;11.73;6.17;;;;;;;;;;5095610;28;20591;-80
2022/10/04 02:00:23;;;;;;;12.37;5.90;;;;;;;;;;5095733;28;20222;-80
2022/10/04 02:02:53;;;;;;;8.20;5.27;;;;;;;;;;5096130;28;20186;-81
2022/10/04 02:05:28;;;;;;;9.97;6.40;;;;;;;;;;5095802;28;20608;-81
2022/10/04 02:08:02;;;;;;;8.67;5.97;;;;;;;;;;5095618;28;20190;-80
2022/10/04 02:10:35;;;;;;;8.70;5.83;;;;;;;;;;5092345;28;20227;-81
2022/10/04 02:13:10;;;;;;;6.33;5.60;;;;;;;;;;5075374;28;20221;-81
2022/10/04 02:15:39;;;;;;;9.07;5.80;;;;;;;;;;5074914;28;20208;-81
2022/10/04 02:18:11;;;;;;;9.87;5.70;;;;;;;;;;5075235;28;20628;-81
2022/10/04 02:20:40;;;;;;;8.77;5.60;;;;;;;;;;5074458;28;20191;-80
2022/10/04 02:23:11;;;;;;;7.13;5.53;;;;;;;;;;5074317;28;20272;-80
2022/10/04 02:25:40;;;;;;;9.30;5.73;;;;;;;;;;5074993;28;20183;-81
2022/10/04 02:28:11;;;;;;;9.23;5.63;;;;;;;;;;5075248;28;20198;-81
2022/10/04 02:30:41;;;;;;;9.40;5.63;;;;;;;;;;5075081;28;20199;-81
2022/10/04 02:33:09;;;;;;;11.00;6.43;;;;;;;;;;5075342;28;20226;-81
2022/10/04 02:35:38;;;;;;;9.47;6.20;;;;;;;;;;5076531;28;20241;-81
2022/10/04 02:38:10;;;;;;;8.93;6.30;;;;;;;;;;5075061;28;20209;-81
2022/10/04 02:40:43;;;;;;;13.07;6.80;;;;;;;;;;5075384;28;20593;-81
2022/10/04 02:43:15;;;;;;;8.47;6.20;;;;;;;;;;5074914;28;20222;-81
2022/10/04 02:45:47;;;;;;;9.30;6.17;;;;;;;;;;5088796;28;20229;-81
2022/10/04 02:48:33;;;;;;;12.37;6.30;;;;;;;;;;5095467;28;20218;-81
2022/10/04 02:51:07;;;;;;;16.23;7.03;;;;;;;;;;5095519;28;20186;-81
2022/10/04 02:53:42;;;;;;;11.40;6.13;;;;;;;;;;5094967;28;20711;-81
2022/10/04 02:56:13;;;;;;;9.73;6.23;;;;;;;;;;5094811;28;20217;-81
2022/10/04 02:58:42;;;;;;;7.73;5.97;;;;;;;;;;5095062;28;20604;-81
2022/10/04 03:01:16;;;;;;;14.73;6.50;;;;;;;;;;5097736;28;20241;-81
2022/10/04 03:03:46;;;;;;;11.77;6.60;;;;;;;;;;5099283;28;20222;-81
2022/10/04 03:06:17;;;;;;;16.67;6.53;;;;;;;;;;5099215;28;20217;-81
2022/10/04 03:08:48;;;;;;;13.60;6.90;;;;;;;;;;5099333;28;20186;-80
2022/10/04 03:11:21;;;;;;;10.97;6.97;;;;;;;;;;5099503;28;20201;-81
2022/10/04 03:13:51;;;;;;;14.27;7.10;;;;;;;;;;5100030;28;20233;-81
2022/10/04 03:16:20;;;;;;;13.00;7.03;;;;;;;;;;5097099;28;20236;-78
2022/10/04 03:18:50;;;;;;;13.53;6.47;;;;;;;;;;5092632;28;20238;-78
2022/10/04 03:21:19;;;;;;;8.73;6.30;;;;;;;;;;5094508;28;20198;-77
2022/10/04 03:23:49;;;;;;;11.67;7.03;;;;;;;;;;5093786;28;20260;-77
2022/10/04 03:26:25;;;;;;;10.80;6.90;;;;;;;;;;5077859;28;20199;-81
2022/10/04 03:28:53;;;;;;;13.87;7.10;;;;;;;;;;5077529;28;20240;-81
2022/10/04 03:31:23;;;;;;;9.00;6.57;;;;;;;;;;5078023;28;20214;-81
2022/10/04 03:33:51;;;;;;;13.53;7.07;;;;;;;;;;5078324;28;20250;-81
2022/10/04 03:36:20;;;;;;;9.23;6.30;;;;;;;;;;5077991;28;20750;-81
2022/10/04 03:38:49;;;;;;;13.63;6.80;;;;;;;;;;5078216;28;20237;-81
2022/10/04 03:41:18;;;;;;;11.93;6.57;;;;;;;;;;5087726;28;20230;-81
2022/10/04 03:43:49;;;;;;;12.20;6.67;;;;;;;;;;5098003;28;20279;-81
2022/10/04 03:46:18;;;;;;;15.60;6.63;;;;;;;;;;5083925;28;20655;-81
2022/10/04 03:48:49;;;;;;;10.43;6.53;;;;;;;;;;5078258;28;20322;-81
2022/10/04 03:51:20;;;;;;;11.57;7.00;;;;;;;;;;5077388;28;20230;-81
2022/10/04 03:53:50;;;;;;;12.07;6.97;;;;;;;;;;5077639;28;20691;-81
2022/10/04 03:56:21;;;;;;;10.97;6.23;;;;;;;;;;5077398;28;20671;-80
2022/10/04 03:58:52;;;;;;;12.23;6.50;;;;;;;;;;5077426;28;20186;-81
2022/10/04 04:01:36;;;;;;;9.87;6.33;;;;;;;;;;5078168;28;20713;-81
2022/10/04 04:04:12;;;;;;;10.20;7.13;;;;;;;;;;5076720;28;20252;-81
2022/10/04 04:06:42;;;;;;;11.57;6.83;;;;;;;;;;5078625;28;20206;-77
2022/10/04 04:09:18;;;;;;;13.43;7.37;;;;;;;;;;5076613;28;20267;-77
2022/10/04 04:11:49;;;;;;;14.23;7.40;;;;;;;;;;5076315;28;20289;-77
2022/10/04 04:14:21;;;;;;;13.33;6.80;;;;;;;;;;5076464;28;20730;-77
2022/10/04 04:16:51;;;;;;;10.80;6.60;;;;;;;;;;5089559;28;20199;-77
2022/10/04 04:19:22;;;;;;;12.50;6.03;;;;;;;;;;5081406;28;20231;-77
2022/10/04 04:21:51;;;;;;;10.83;6.20;;;;;;;;;;5093584;28;20277;-77
2022/10/04 04:24:24;;;;;;;12.87;6.40;;;;;;;;;;5095170;28;20249;-75
2022/10/04 04:26:55;;;;;;;10.13;6.53;;;;;;;;;;5091505;28;20229;-75
2022/10/04 04:29:26;;;;;;;14.67;6.37;;;;;;;;;;5075285;28;20227;-75
2022/10/04 04:31:56;;;;;;;10.97;6.37;;;;;;;;;;5079629;28;20693;-75
2022/10/04 04:34:28;;;;;;;11.43;5.93;;;;;;;;;;5095942;28;20229;-75
2022/10/04 04:36:58;;;;;;;12.40;6.60;;;;;;;;;;5089660;28;20206;-75
2022/10/04 04:39:40;;;;;;;12.13;6.40;;;;;;;;;;5079559;28;20202;-75
2022/10/04 04:42:14;;;;;;;9.63;6.00;;;;;;;;;;5081234;28;20194;-75
2022/10/04 04:44:49;;;;;;;13.57;6.23;;;;;;;;;;5074777;28;20241;-75
2022/10/04 04:47:26;;;;;;;12.73;5.90;;;;;;;;;;5076020;28;20275;-75
2022/10/04 04:49:55;;;;;;;12.83;5.67;;;;;;;;;;5089857;28;20240;-74
2022/10/04 04:52:26;;;;;;;12.27;5.93;;;;;;;;;;5077212;28;20763;-75
2022/10/04 04:54:55;;;;;;;9.93;6.33;;;;;;;;;;5074679;28;20651;-75
2022/10/04 04:57:24;;;;;;;10.57;5.87;;;;;;;;;;5074420;28;20687;-75
2022/10/04 04:59:56;;;;;;;8.33;6.03;;;;;;;;;;5081293;28;20240;-75
2022/10/04 05:02:27;;;;;;;8.17;5.33;;;;;;;;;;5079514;28;20198;-75
2022/10/04 05:05:11;;;;;;;12.10;5.67;;;;;;;;;;5077078;28;20645;-75
2022/10/04 05:07:42;;;;;;;9.00;5.90;;;;;;;;;;5074434;28;20282;-75
2022/10/04 05:10:21;;;;;;;10.27;6.37;;;;;;;;;;5073786;28;20194;-75
2022/10/04 05:12:50;;;;;;;14.17;6.10;;;;;;;;;;5073747;28;20678;-75
2022/10/04 05:15:21;;;;;;;11.67;6.87;;;;;;;;;;5074035;28;20226;-75
2022/10/04 05:17:49;;;;;;;13.23;6.90;;;;;;;;;;5082754;28;20244;-75
2022/10/04 05:20:19;;;;;;;11.40;6.00;;;;;;;;;;5082015;28;20198;-75
2022/10/04 05:22:48;;;;;;;11.77;7.03;;;;;;;;;;5092400;28;20236;-75
2022/10/04 05:25:23;;;;;;;13.60;7.20;;;;;;;;;;5088785;28;20670;-76
2022/10/04 05:27:53;;;;;;;16.97;6.90;;;;;;;;;;5074257;28;20275;-79
2022/10/04 05:30:29;;;;;;;10.20;6.30;;;;;;;;;;5074732;28;20210;-75
2022/10/04 05:33:00;;;;;;;8.90;6.97;;;;;;;;;;5088248;28;20640;-75
2022/10/04 05:35:30;;;;;;;10.73;7.83;;;;;;;;;;5086803;28;20249;-75
2022/10/04 05:38:03;;;;;;;15.63;8.33;;;;;;;;;;5085545;28;20198;-75
2022/10/04 05:40:34;;;;;;;14.13;8.10;;;;;;;;;;5087119;28;20206;-75
2022/10/04 05:43:03;;;;;;;13.10;8.63;;;;;;;;;;5088840;28;20296;-75
2022/10/04 05:45:33;;;;;;;10.50;7.90;;;;;;;;;;5077637;28;20203;-75
2022/10/04 05:48:02;;;;;;;12.17;6.87;;;;;;;;;;5083888;28;20202;-75
2022/10/04 05:50:32;;;;;;;8.83;6.27;;;;;;;;;;5094054;28;20245;-75
2022/10/04 05:53:15;;;;;;;8.97;6.83;;;;;;;;;;5078300;28;20253;-75
2022/10/04 05:55:47;;;;;;;8.27;6.50;;;;;;;;;;5079051;28;20206;-75
2022/10/04 05:58:24;;;;;;;11.77;6.07;;;;;;;;;;5088411;28;20252;-75
2022/10/04 06:01:15;;;;;;;8.67;5.97;;;;;;;;;;5079127;28;20201;-75
2022/10/04 06:03:58;;;;;;;10.47;6.20;;;;;;;;;;5073163;28;20756;-75
2022/10/04 06:06:32;;;;;;;10.73;6.87;;;;;;;;;;5071248;28;20273;-75
2022/10/04 06:09:06;;;;;;;10.27;6.70;;;;;;;;;;5073032;28;20717;-75
2022/10/04 06:11:39;;;;;;;13.50;7.23;;;;;;;;;;5073359;28;20323;-75
2022/10/04 06:14:28;;;;;;;14.97;7.33;;;;;;;;;;5082327;28;20214;-75
2022/10/04 06:17:07;;;;;;;13.20;6.83;;;;;;;;;;5077875;28;20238;-75
2022/10/04 06:19:45;;;;;;;11.07;6.53;;;;;;;;;;5090390;28;20197;-75
2022/10/04 06:22:16;;;;;;;11.40;6.63;;;;;;;;;;5088694;28;20791;-75
2022/10/04 06:24:46;;;;;;;13.03;6.47;;;;;;;;;;5081693;28;20230;-75
2022/10/04 06:27:18;;;;;;;12.67;6.83;;;;;;;;;;5092070;28;20662;-75
2022/10/04 06:29:49;;;;;;;12.73;6.60;;;;;;;;;;5084066;28;20223;-75
2022/10/04 06:32:36;;;;;;;12.40;5.90;;;;;;;;;;5086056;28;20683;-75
2022/10/04 06:35:19;;;;;;;10.10;6.20;;;;;;;;;;5089552;28;20208;-75
2022/10/04 06:38:00;;;;;;;11.43;5.90;;;;;;;;;;5092587;28;20237;-75
2022/10/04 06:40:46;;;;;;;10.67;5.70;;;;;;;;;;5072387;28;20194;-76
2022/10/04 06:43:23;;;;;;;10.13;6.40;;;;;;;;;;5072625;28;20261;-75
2022/10/04 06:45:59;;;;;;;7.33;6.00;;;;;;;;;;5072568;28;20229;-76
2022/10/04 06:48:38;;;;;;;10.40;5.90;;;;;;;;;;5084448;28;20608;-75
2022/10/04 06:51:14;;;;;;;12.07;5.67;;;;;;;;;;5085719;28;20233;-75
2022/10/04 06:53:51;;;;;;;13.83;5.93;;;;;;;;;;5088307;28;20308;-76
2022/10/04 06:56:27;;;;;;;10.73;5.17;;;;;;;;;;5080198;28;20222;-76
2022/10/04 06:59:16;;;;;;;9.23;5.43;;;;;;;;;;5075175;28;20198;-76
2022/10/04 07:01:49;;;;;;;12.63;5.60;;;;;;;;;;5072749;28;20674;-76
2022/10/04 07:04:24;;;;;;;8.53;5.33;;;;;;;;;;5076825;28;20228;-76
2022/10/04 07:07:22;;;;;;;9.07;5.13;;;;;;;;;;5077013;28;20205;-76
2022/10/04 07:09:47;;;;;;;11.03;5.20;;;;;;;;;;5088035;28;20326;-76
2022/10/04 07:12:17;;;;;;;6.90;4.47;;;;;;;;;;5088170;28;20226;-76
2022/10/04 07:14:47;;;;;;;10.30;5.17;;;;;;;;;;5074065;28;20295;-76
2022/10/04 07:17:20;;;;;;;9.00;4.80;;;;;;;;;;5076905;28;20289;-76
2022/10/04 07:19:49;;;;;;;7.70;4.63;;;;;;;;;;5086901;28;20252;-76
2022/10/04 07:22:22;;;;;;;8.60;4.70;;;;;;;;;;5078860;28;20202;-77
2022/10/04 07:25:03;;;;;;;8.73;5.03;;;;;;;;;;5089138;28;20697;-76
2022/10/04 07:27:34;;;;;;;8.73;4.53;;;;;;;;;;5074393;28;20218;-76
2022/10/04 07:30:04;;;;;;;6.17;4.70;;;;;;;;;;5079677;28;20230;-76
2022/10/04 07:32:35;;;;;;;7.83;4.80;;;;;;;;;;5076633;28;20210;-76
2022/10/04 07:35:06;;;;;;;12.40;5.23;;;;;;;;;;5074663;28;20651;-75
2022/10/04 07:37:35;;;;;;;9.13;5.00;;;;;;;;;;5073160;28;20238;-75
2022/10/04 07:40:08;;;;;;;10.00;4.87;;;;;;;;;;5073175;28;20211;-75
2022/10/04 07:42:40;;;;;;;9.20;4.57;;;;;;;;;;5072209;28;20221;-75
2022/10/04 07:45:14;;;;;;;8.27;4.50;;;;;;;;;;5074406;28;20607;-75
2022/10/04 07:47:43;;;;;;;9.97;4.90;;;;;;;;;;5085438;28;20233;-75
2022/10/04 07:50:31;;;;;;;7.93;4.93;;;;;;;;;;5089510;28;20226;-76
2022/10/04 07:53:01;;;;;;;9.83;5.03;;;;;;;;;;5087619;28;20662;-75
2022/10/04 07:55:46;;;;;;;11.27;5.23;;;;;;;;;;5085904;28;20693;-76
2022/10/04 07:58:25;;;;;;;7.63;4.77;;;;;;;;;;5076735;28;20287;-76
2022/10/04 08:00:57;;;;;;;10.50;5.10;;;;;;;;;;5093818;28;20198;-77
2022/10/04 08:03:49;;;;;;;12.40;4.83;;;;;;;;;;5076191;28;20262;-76
2022/10/04 08:06:20;;;;;;;9.20;5.10;;;;;;;;;;5077969;28;20233;-76
2022/10/04 08:09:10;;;;;;;9.63;5.00;;;;;;;;;;5074418;28;20210;-75
2022/10/04 08:11:49;;;;;;;10.87;5.37;;;;;;;;;;5084514;28;20912;-76
2022/10/04 08:14:26;;;;;;;8.47;5.50;;;;;;;;;;5086082;28;20218;-76
2022/10/04 08:17:03;;;;;;;7.00;5.27;;;;;;;;;;5083835;28;20238;-76
2022/10/04 08:19:37;;;;;;;10.70;5.40;;;;;;;;;;5095485;28;20202;-76
2022/10/04 08:22:14;;;;;;;8.10;6.00;;;;;;;;;;5075910;28;20233;-76
2022/10/04 08:24:44;;;;;;;10.03;5.97;;;;;;;;;;5076963;28;20258;-75
2022/10/04 08:27:27;;;;;;;10.50;5.67;;;;;;;;;;5075620;28;20218;-75
2022/10/04 08:30:10;;;;;;;7.40;5.03;;;;;;;;;;5081322;28;20237;-75
2022/10/04 08:32:54;;;;;;;9.60;5.47;;;;;;;;;;5091879;28;20233;-76
2022/10/04 08:35:35;;;;;;;8.97;5.60;;;;;;;;;;5074399;28;20230;-76
2022/10/04 08:38:17;;;;;;;6.87;5.03;;;;;;;;;;5076032;28;20239;-76
2022/10/04 08:41:03;;;;;;;9.57;5.50;;;;;;;;;;5090489;28;20252;-76
2022/10/04 08:44:04;;;;;;;5.73;4.87;;;;;;;;;;5077372;28;20766;-76
2022/10/04 08:46:54;;;;;;;8.97;5.00;;;;;;;;;;5092460;28;20210;-76
2022/10/04 08:49:37;;;;;;;9.37;4.90;;;;;;;;;;5056568;28;20281;-76
2022/10/04 08:52:13;;;;;;;9.73;4.70;;;;;;;;;;5051892;28;20703;-77
2022/10/04 08:54:50;;;;;;;9.60;4.50;;;;;;;;;;5078374;28;20260;-75
2022/10/04 08:57:31;;;;;;;9.07;4.83;;;;;;;;;;5080298;28;20670;-75
2022/10/04 09:00:11;;;;;;;7.33;4.93;;;;;;;;;;5084096;28;20193;-76
2022/10/04 09:03:07;;;;;;;10.23;5.17;;;;;;;;;;5094447;28;20185;-75
2022/10/04 09:05:54;;;;;;;9.47;4.53;;;;;;;;;;5077519;28;20202;-75
2022/10/04 09:08:35;;;;;;;8.80;4.63;;;;;;;;;;5074917;28;20190;-76
2022/10/04 09:11:16;;;;;;;7.27;4.77;;;;;;;;;;5078549;28;20254;-78
2022/10/04 09:13:53;;;;;;;8.87;4.90;;;;;;;;;;5074398;28;20651;-76
2022/10/04 09:16:30;;;;;;;8.13;4.47;;;;;;;;;;5074209;28;20686;-75
2022/10/04 09:19:14;;;;;;;9.03;4.90;;;;;;;;;;5074629;28;20785;-75
2022/10/04 09:21:53;;;;;;;6.83;4.20;;;;;;;;;;5074422;28;20218;-75
2022/10/04 09:24:33;;;;;;;7.50;4.80;;;;;;;;;;5074641;28;20702;-76
2022/10/04 09:27:12;;;;;;;6.87;4.60;;;;;;;;;;5085076;28;20206;-76
2022/10/04 09:30:15;;;;;;;8.63;4.37;;;;;;;;;;5080590;28;20244;-75
2022/10/04 09:33:01;;;;;;;6.00;4.07;;;;;;;;;;5073065;28;20573;-76
2022/10/04 09:35:48;;;;;;;9.07;4.53;;;;;;;;;;5073131;28;20207;-76
2022/10/04 09:38:50;;;;;;;10.23;4.50;;;;;;;;;;5085980;28;20752;-75
2022/10/04 09:41:42;;;;;;;6.23;4.43;;;;;;;;;;5093167;28;20202;-76
2022/10/04 09:44:32;;;;;;;7.70;3.80;;;;;;;;;;5094061;28;20257;-76
2022/10/04 09:47:11;;;;;;;13.27;4.30;;;;;;;;;;5093731;28;20198;-75
2022/10/04 09:49:49;;;;;;;6.10;3.60;;;;;;;;;;5079231;28;20225;-75
2022/10/04 09:52:24;;;;;;;7.72;3.85;;;;;;;;;;5088947;28;20572;-76
2022/10/04 09:55:03;;;;;;;7.68;3.60;;;;;;;;;;5089877;28;20287;-76
2022/10/04 09:57:43;;;;;;;6.03;3.22;;;;;;;;;;5080818;28;20205;-76
2022/10/04 10:00:20;;;;;;;6.75;3.20;;;;;;;;;;5082692;28;20209;-76
2022/10/04 10:03:11;;;;;;;9.02;3.47;;;;;;;;;;5093525;28;20240;-75
2022/10/04 10:05:49;;;;;;;7.18;3.70;;;;;;;;;;5078046;28;20659;-76
2022/10/04 10:08:22;;;;;;;7.15;3.70;;;;;;;;;;5077550;28;20198;-76
2022/10/04 10:14:16;;;;;;;6.78;3.55;;;;;;;;;;5088070;28;20279;-76
2022/10/04 10:16:54;;;;;;;6.13;3.28;;;;;;;;;;5021202;28;20232;-76
2022/10/04 10:19:35;;;;;;;5.75;3.55;;;;;;;;;;5064386;28;20254;-76
2022/10/04 10:22:15;;;;;;;5.88;3.22;;;;;;;;;;5079969;28;20229;-76
2022/10/04 10:25:00;;;;;;;4.65;3.20;;;;;;;;;;5073144;28;20266;-76
2022/10/04 10:27:38;;;;;;;7.13;3.97;;;;;;;;;;5090398;28;20202;-76
2022/10/04 10:30:16;;;;;;;7.20;3.53;;;;;;;;;;5082943;28;20227;-77
2022/10/04 10:32:56;;;;;;;7.18;3.10;;;;;;;;;;5089429;28;20259;-77
2022/10/04 10:35:42;;;;;;;8.65;3.10;;;;;;;;;;5089194;28;20220;-75
2022/10/04 10:38:24;;;;;;;5.95;3.17;;;;;;;;;;5093425;28;20257;-75
2022/10/04 10:41:02;;;;;;;7.40;3.38;;;;;;;;;;5093534;28;20190;-76
2022/10/04 10:43:46;;;;;;;6.82;2.92;;;;;;;;;;5088522;28;20248;-76
2022/10/04 10:46:33;;;;;;;5.90;2.85;;;;;;;;;;5072977;28;20711;-76
2022/10/04 10:49:21;;;;;;;5.95;3.22;;;;;;;;;;5089370;28;20213;-76
2022/10/04 10:52:09;;;;;;;8.57;2.90;;;;;;;;;;5077697;28;20248;-75
2022/10/04 10:54:58;;;;;;;6.97;3.13;;;;;;;;;;5079027;28;20229;-76
2022/10/04 10:57:40;;;;;;;6.20;2.97;;;;;;;;;;5075206;28;20195;-75
2022/10/04 11:00:26;;;;;;;5.35;2.83;;;;;;;;;;5076333;28;20297;-76
2022/10/04 11:03:12;;;;;;;5.60;2.40;;;;;;;;;;5081074;28;20717;-76
2022/10/04 11:06:04;;;;;;;6.20;2.65;;;;;;;;;;5079011;28;20203;-76
2022/10/04 11:08:47;;;;;;;4.22;2.20;;;;;;;;;;5071896;28;20286;-75
2022/10/04 11:11:22;;;;;;;3.95;2.45;;;;;;;;;;5072165;28;20263;-76
2022/10/04 11:14:01;;;;;;;4.55;2.47;;;;;;;;;;5073695;28;20233;-78
2022/10/04 11:16:47;;;;;;;4.78;2.60;;;;;;;;;;5073911;28;20221;-77
2022/10/04 11:19:28;;;;;;;7.22;2.85;;;;;;;;;;5083256;28;20226;-77
2022/10/04 11:22:16;;;;;;;6.20;2.47;;;;;;;;;;5076094;28;20220;-78
2022/10/04 11:24:58;;;;;;;4.88;2.20;;;;;;;;;;5096599;28;20233;-77
2022/10/04 11:27:43;;;;;;;3.75;2.10;;;;;;;;;;5085569;28;20225;-79
2022/10/04 11:30:22;;;;;;;5.25;2.20;;;;;;;;;;5083025;28;20689;-77
2022/10/04 11:33:16;;;;;;;5.30;2.17;;;;;;;;;;5079310;28;20209;-78
2022/10/04 11:36:02;;;;;;;4.13;2.30;;;;;;;;;;5093396;28;20237;-78
2022/10/04 11:38:47;;;;;;;3.20;2.05;;;;;;;;;;5077246;28;20252;-78
2022/10/04 11:41:20;;;;;;;5.07;2.42;;;;;;;;;;5086361;28;20201;-78
2022/10/04 11:44:03;;;;;;;4.15;2.20;;;;;;;;;;5077287;28;20233;-78
2022/10/04 11:46:37;;;;;;;7.47;2.40;;;;;;;;;;5065190;28;20234;-80
2022/10/04 11:49:13;;;;;;;5.55;2.33;;;;;;;;;;5078391;28;20264;-81
2022/10/04 11:52:03;;;;;;;7.38;2.60;;;;;;;;;;5079631;28;20187;-80
2022/10/04 11:54:50;;;;;;;5.45;2.40;;;;;;;;;;5052741;28;20231;-80
2022/10/04 11:57:26;;;;;;;6.60;2.40;;;;;;;;;;5080683;28;20213;-80
2022/10/04 11:59:59;;;;;;;6.50;2.70;;;;;;;;;;5077026;28;20206;-80
2022/10/04 12:02:55;;;;;;;4.38;2.42;;;;;;;;;;5077131;28;20179;-80
2022/10/04 12:05:31;;;;;;;4.70;2.17;;;;;;;;;;5076948;28;20619;-80
2022/10/04 12:08:04;;;;;;;5.13;2.58;;;;;;;;;;5077822;28;20182;-80
2022/10/04 12:10:36;;;;;;;3.65;2.10;;;;;;;;;;5077933;28;20233;-80
2022/10/04 12:13:28;;;;;;;5.32;2.40;;;;;;;;;;5077410;28;20272;-80
2022/10/04 12:16:12;;;;;;;5.03;2.13;;;;;;;;;;5078426;28;20194;-80
2022/10/04 12:18:55;;;;;;;3.65;2.10;;;;;;;;;;5077467;28;20293;-80
2022/10/04 12:21:41;;;;;;;3.53;2.00;;;;;;;;;;5078227;28;20281;-80
2022/10/04 12:24:27;;;;;;;5.65;2.17;;;;;;;;;;5078992;28;20279;-80
2022/10/04 12:27:18;;;;;;;3.80;1.92;;;;;;;;;;5077045;28;20264;-81
2022/10/04 12:30:08;;;;;;;5.82;2.20;;;;;;;;;;5077801;28;20212;-80
2022/10/04 12:32:40;;;;;;;4.88;2.20;;;;;;;;;;5077725;28;20646;-80
2022/10/04 12:35:18;;;;;;;5.40;2.22;;;;;;;;;;5076693;28;20214;-80
2022/10/04 12:37:55;;;;;;;3.72;2.25;;;;;;;;;;5074528;28;20208;-80
2022/10/04 12:40:29;;;;;;;4.20;2.10;;;;;;;;;;5075888;28;20249;-79
2022/10/04 12:43:03;;;;;;;4.97;2.30;;;;;;;;;;5076543;28;20275;-81
2022/10/04 12:45:43;;;;;;;7.72;2.40;;;;;;;;;;5076518;28;20228;-80
2022/10/04 12:48:23;;;;;;;4.75;2.33;;;;;;;;;;5076609;28;20187;-81
2022/10/04 12:51:01;;;;;;;5.68;2.50;;;;;;;;;;5076769;28;20182;-80
2022/10/04 12:53:39;;;;;;;4.93;2.05;;;;;;;;;;5078840;28;20669;-82
2022/10/04 12:56:09;;;;;;;4.53;2.00;;;;;;;;;;5076098;28;20630;-81
2022/10/04 12:58:49;;;;;;;4.45;2.33;;;;;;;;;;5076951;28;20242;-80
2022/10/04 13:01:21;;;;;;;5.53;2.30;;;;;;;;;;5076183;28;20229;-80
2022/10/04 13:04:13;;;;;;;3.85;2.25;;;;;;;;;;5078276;28;20229;-80
2022/10/04 13:06:59;;;;;;;4.63;2.38;;;;;;;;;;5063827;28;20206;-81
2022/10/04 13:09:33;;;;;;;3.08;1.90;;;;;;;;;;5076071;28;20175;-80
2022/10/04 13:12:10;;;;;;;6.75;2.38;;;;;;;;;;5076748;28;20290;-81
2022/10/04 13:14:44;;;;;;;4.35;2.33;;;;;;;;;;5076514;28;20257;-80
2022/10/04 13:17:17;;;;;;;4.40;2.38;;;;;;;;;;5076798;28;20230;-81
2022/10/04 13:20:16;;;;;;;5.60;2.30;;;;;;;;;;5077036;28;20668;-80
2022/10/04 13:22:50;;;;;;;5.53;2.22;;;;;;;;;;5075775;28;20190;-80
2022/10/04 13:25:31;;;;;;;4.38;2.08;;;;;;;;;;5076629;28;20190;-80
2022/10/04 13:28:04;;;;;;;4.28;2.30;;;;;;;;;;5075451;28;20198;-80
2022/10/04 13:30:36;;;;;;;4.53;1.92;;;;;;;;;;5077978;28;20182;-80
2022/10/04 13:33:09;;;;;;;4.95;2.30;;;;;;;;;;5075982;28;20222;-80
2022/10/04 13:35:41;;;;;;;4.78;2.33;;;;;;;;;;5074915;28;20191;-81
2022/10/04 13:38:30;;;;;;;4.80;2.05;;;;;;;;;;5075021;28;20285;-80
2022/10/04 13:41:09;;;;;;;3.55;2.15;;;;;;;;;;5048631;28;20226;-80
2022/10/04 13:44:02;;;;;;;5.78;2.15;;;;;;;;;;5073644;28;20218;-81
2022/10/04 13:46:38;;;;;;;5.68;2.00;;;;;;;;;;5074856;28;20581;-79
2022/10/04 13:49:30;;;;;;;5.20;1.90;;;;;;;;;;5074537;28;20651;-79
2022/10/04 13:57:48;;;;;;;3.95;1.88;;;;;;;;;;5073966;28;20191;-80
2022/10/04 14:00:21;;;;;;;4.35;2.20;;;;;;;;;;5076603;28;20229;-80
2022/10/04 14:03:12;;;;;;;2.50;1.60;;;;;;;;;;5078027;28;20255;-79
2022/10/04 14:06:00;;;;;;;5.03;2.10;;;;;;;;;;5075770;28;20210;-81
2022/10/04 14:08:44;;;;;;;3.28;1.92;;;;;;;;;;5078309;28;20206;-80
2022/10/04 14:11:41;;;;;;;5.10;2.00;;;;;;;;;;5078733;28;20577;-79
2022/10/04 14:14:30;;;;;;;4.00;1.98;;;;;;;;;;5079474;28;20313;-80
2022/10/04 14:17:14;;;;;;;3.75;2.00;;;;;;;;;;5078726;28;20592;-80
2022/10/04 14:19:57;;;;;;;3.15;1.77;;;;;;;;;;5074166;28;20202;-80
2022/10/04 14:22:44;;;;;;;3.35;1.77;;;;;;;;;;5073212;28;20211;-79
2022/10/04 14:25:31;;;;;;;4.35;2.13;;;;;;;;;;5073565;28;20553;-79
2022/10/04 14:28:33;;;;;;;4.95;1.75;;;;;;;;;;5072964;28;20213;-80
2022/10/04 14:31:21;;;;;;;2.63;1.75;;;;;;;;;;5074019;28;20218;-80
2022/10/04 14:34:57;;;;;;;2.75;1.90;;;;;;;;;;5111268;27;20558;-81
2022/10/04 14:37:52;;;;;;;3.10;2.00;;;;;;;;;;5111206;28;20185;-81
2022/10/04 14:40:39;;;;;;;4.05;1.80;;;;;;;;;;5112239;28;20229;-80
2022/10/04 14:43:22;;;;;;;2.97;1.88;;;;;;;;;;5111486;28;20256;-80
2022/10/04 14:46:06;;;;;;;4.07;1.95;;;;;;;;;;5112878;28;20221;-81
2022/10/04 14:49:00;;;;;;;3.40;1.95;;;;;;;;;;5114427;28;20201;-81
2022/10/04 14:51:42;;;;;;;4.45;1.90;;;;;;;;;;5112050;28;20243;-81
2022/10/04 14:54:13;;;;;;;4.50;2.05;;;;;;;;;;5110862;28;20688;-80
2022/10/04 14:56:46;;;;;;;3.97;2.10;;;;;;;;;;5110925;28;20193;-80
2022/10/04 14:59:26;;;;;;;4.57;2.10;;;;;;;;;;5110968;28;20643;-80
2022/10/04 15:02:25;;;;;;;3.83;2.20;;;;;;;;;;5110978;28;20292;-80
2022/10/04 15:05:20;;;;;;;5.95;2.10;;;;;;;;;;5047629;28;20266;-81
2022/10/04 15:07:52;;;;;;;4.93;2.00;;;;;;;;;;5108539;28;20296;-81
2022/10/04 15:10:22;;;;;;;2.65;2.33;;;;;;;;;;5111573;28;20213;-82
2022/10/04 15:12:58;;;;;;;4.93;2.20;;;;;;;;;;5111247;28;20209;-82
2022/10/04 15:15:51;;;;;;;3.92;2.13;;;;;;;;;;5111342;28;20205;-81
2022/10/04 15:18:28;;;;;;;5.55;2.25;;;;;;;;;;5110646;28;20178;-81
2022/10/04 15:21:00;;;;;;;2.78;2.25;;;;;;;;;;5110029;28;20189;-80
2022/10/04 15:23:36;;;;;;;4.68;2.15;;;;;;;;;;5110096;28;20228;-81
2022/10/04 15:26:07;;;;;;;3.75;2.08;;;;;;;;;;5109980;28;20189;-81
2022/10/04 15:28:47;;;;;;;5.43;2.55;;;;;;;;;;5109866;28;20225;-80
2022/10/04 15:31:19;;;;;;;3.30;2.10;;;;;;;;;;5109750;28;20197;-81
2022/10/04 15:33:56;;;;;;;3.53;2.22;;;;;;;;;;5109370;28;20233;-80
2022/10/04 15:36:32;;;;;;;3.17;2.15;;;;;;;;;;5111137;28;20265;-81
2022/10/04 15:39:05;;;;;;;4.22;2.20;;;;;;;;;;5111194;28;20204;-81
2022/10/04 15:41:37;;;;;;;3.70;2.50;;;;;;;;;;5111424;28;20209;-81
2022/10/04 15:44:19;;;;;;;4.65;2.50;;;;;;;;;;5109036;28;20209;-81
2022/10/04 15:46:51;;;;;;;4.70;2.40;;;;;;;;;;5097037;28;20212;-82